sensor_id;sensor_type;location;lat;lon;timestamp;P1;durP1;ratioP1;P2;durP2;ratioP2
48403;SDS011;34202;52.536;6.042;2023-05-24T00:01:52;13.00;;;3.30;;
48403;SDS011;34202;52.536;6.042;2023-05-24T00:06:55;17.70;;;4.00;;
48403;SDS011;34202;52.536;6.042;2023-05-24T00:11:57;18.60;;;4.60;;
48403;SDS011;34202;52.536;6.042;2023-05-24T00:16:57;16.90;;;3.40;;
48403;SDS011;34202;52.536;6.042;2023-05-24T00:21:58;18.90;;;5.00;;
48403;SDS011;34202;52.536;6.042;2023-05-24T00:26:58;23.90;;;4.20;;
48403;SDS011;34202;52.536;6.042;2023-05-24T00:31:59;21.00;;;4.20;;
48403;SDS011;34202;52.536;6.042;2023-05-24T00:36:59;16.90;;;4.60;;
48403;SDS011;34202;52.536;6.042;2023-05-24T00:41:59;21.40;;;4.30;;
48403;SDS011;34202;52.536;6.042;2023-05-24T00:47:00;20.60;;;4.60;;
48403;SDS011;34202;52.536;6.042;2023-05-24T00:52:00;21.50;;;5.60;;
48403;SDS011;34202;52.536;6.042;2023-05-24T00:57:01;18.40;;;4.80;;
48403;SDS011;34202;52.536;6.042;2023-05-24T01:02:02;15.90;;;3.90;;
48403;SDS011;34202;52.536;6.042;2023-05-24T01:12:29;22.90;;;4.80;;
48403;SDS011;34202;52.536;6.042;2023-05-24T01:17:52;24.60;;;5.30;;
48403;SDS011;34202;52.536;6.042;2023-05-24T01:28:27;15.30;;;4.60;;
48403;SDS011;34202;52.536;6.042;2023-05-24T01:33:28;18.30;;;5.00;;
48403;SDS011;34202;52.536;6.042;2023-05-24T01:38:29;17.90;;;5.30;;
48403;SDS011;34202;52.536;6.042;2023-05-24T01:43:36;29.20;;;7.50;;
48403;SDS011;34202;52.536;6.042;2023-05-24T01:54:01;23.90;;;5.40;;
48403;SDS011;34202;52.536;6.042;2023-05-24T01:59:05;22.40;;;5.50;;
48403;SDS011;34202;52.536;6.042;2023-05-24T02:04:06;16.80;;;4.90;;
48403;SDS011;34202;52.536;6.042;2023-05-24T02:09:07;22.90;;;4.80;;
48403;SDS011;34202;52.536;6.042;2023-05-24T02:14:07;21.40;;;6.20;;
48403;SDS011;34202;52.536;6.042;2023-05-24T02:19:08;15.90;;;5.90;;
48403;SDS011;34202;52.536;6.042;2023-05-24T02:24:08;24.70;;;6.20;;
48403;SDS011;34202;52.536;6.042;2023-05-24T02:29:11;23.50;;;6.70;;
48403;SDS011;34202;52.536;6.042;2023-05-24T02:34:12;18.00;;;4.60;;
48403;SDS011;34202;52.536;6.042;2023-05-24T02:39:12;27.30;;;9.00;;
48403;SDS011;34202;52.536;6.042;2023-05-24T02:44:13;25.70;;;6.30;;
48403;SDS011;34202;52.536;6.042;2023-05-24T02:49:13;17.50;;;5.40;;
48403;SDS011;34202;52.536;6.042;2023-05-24T02:54:13;25.90;;;5.10;;
48403;SDS011;34202;52.536;6.042;2023-05-24T02:59:16;17.90;;;4.70;;
48403;SDS011;34202;52.536;6.042;2023-05-24T03:04:17;19.80;;;4.90;;
48403;SDS011;34202;52.536;6.042;2023-05-24T03:09:17;24.60;;;6.30;;
48403;SDS011;34202;52.536;6.042;2023-05-24T03:14:18;11.90;;;4.60;;
48403;SDS011;34202;52.536;6.042;2023-05-24T03:19:21;21.40;;;5.60;;
48403;SDS011;34202;52.536;6.042;2023-05-24T03:24:21;27.60;;;5.80;;
48403;SDS011;34202;52.536;6.042;2023-05-24T03:29:22;21.60;;;4.90;;
48403;SDS011;34202;52.536;6.042;2023-05-24T03:34:22;16.50;;;4.60;;
48403;SDS011;34202;52.536;6.042;2023-05-24T03:39:22;18.10;;;4.30;;
48403;SDS011;34202;52.536;6.042;2023-05-24T03:44:23;20.40;;;5.80;;
48403;SDS011;34202;52.536;6.042;2023-05-24T03:49:23;27.00;;;5.60;;
48403;SDS011;34202;52.536;6.042;2023-05-24T03:54:23;14.60;;;5.20;;
48403;SDS011;34202;52.536;6.042;2023-05-24T03:59:24;19.80;;;4.40;;
48403;SDS011;34202;52.536;6.042;2023-05-24T04:04:25;17.00;;;4.10;;
48403;SDS011;34202;52.536;6.042;2023-05-24T04:09:25;21.70;;;5.10;;
48403;SDS011;34202;52.536;6.042;2023-05-24T04:14:25;29.50;;;5.40;;
48403;SDS011;34202;52.536;6.042;2023-05-24T04:19:26;17.60;;;4.40;;
48403;SDS011;34202;52.536;6.042;2023-05-24T04:24:26;13.30;;;4.20;;
48403;SDS011;34202;52.536;6.042;2023-05-24T04:29:27;14.90;;;4.60;;
48403;SDS011;34202;52.536;6.042;2023-05-24T04:34:27;17.00;;;4.20;;
48403;SDS011;34202;52.536;6.042;2023-05-24T04:39:32;18.00;;;3.90;;
48403;SDS011;34202;52.536;6.042;2023-05-24T04:44:33;19.60;;;5.20;;
48403;SDS011;34202;52.536;6.042;2023-05-24T04:49:33;22.80;;;5.30;;
48403;SDS011;34202;52.536;6.042;2023-05-24T04:54:34;17.40;;;4.40;;
48403;SDS011;34202;52.536;6.042;2023-05-24T04:59:34;25.00;;;5.10;;
48403;SDS011;34202;52.536;6.042;2023-05-24T05:04:35;20.10;;;4.90;;
48403;SDS011;34202;52.536;6.042;2023-05-24T05:09:36;15.70;;;4.30;;
48403;SDS011;34202;52.536;6.042;2023-05-24T05:14:36;20.60;;;4.00;;
48403;SDS011;34202;52.536;6.042;2023-05-24T05:19:37;20.90;;;4.80;;
48403;SDS011;34202;52.536;6.042;2023-05-24T05:24:37;24.30;;;4.60;;
48403;SDS011;34202;52.536;6.042;2023-05-24T05:29:37;24.80;;;6.60;;
48403;SDS011;34202;52.536;6.042;2023-05-24T05:34:38;19.30;;;4.60;;
48403;SDS011;34202;52.536;6.042;2023-05-24T05:39:38;27.70;;;5.50;;
48403;SDS011;34202;52.536;6.042;2023-05-24T05:44:38;19.40;;;4.80;;
48403;SDS011;34202;52.536;6.042;2023-05-24T05:49:39;21.40;;;5.10;;
48403;SDS011;34202;52.536;6.042;2023-05-24T05:54:39;24.10;;;4.90;;
48403;SDS011;34202;52.536;6.042;2023-05-24T05:59:40;21.90;;;4.10;;
48403;SDS011;34202;52.536;6.042;2023-05-24T06:04:40;15.10;;;4.00;;
48403;SDS011;34202;52.536;6.042;2023-05-24T06:09:40;22.90;;;4.60;;
48403;SDS011;34202;52.536;6.042;2023-05-24T06:14:41;24.20;;;4.60;;
48403;SDS011;34202;52.536;6.042;2023-05-24T06:19:41;17.20;;;4.30;;
48403;SDS011;34202;52.536;6.042;2023-05-24T06:24:42;17.30;;;4.10;;
48403;SDS011;34202;52.536;6.042;2023-05-24T06:29:42;17.10;;;4.30;;
48403;SDS011;34202;52.536;6.042;2023-05-24T06:34:43;17.00;;;4.70;;
48403;SDS011;34202;52.536;6.042;2023-05-24T06:39:43;21.10;;;3.80;;
48403;SDS011;34202;52.536;6.042;2023-05-24T06:44:44;23.50;;;5.30;;
48403;SDS011;34202;52.536;6.042;2023-05-24T06:49:44;18.70;;;3.90;;
48403;SDS011;34202;52.536;6.042;2023-05-24T06:54:47;16.20;;;4.10;;
48403;SDS011;34202;52.536;6.042;2023-05-24T06:59:49;19.10;;;4.40;;
48403;SDS011;34202;52.536;6.042;2023-05-24T07:04:49;12.90;;;3.60;;
48403;SDS011;34202;52.536;6.042;2023-05-24T07:09:50;13.70;;;4.40;;
48403;SDS011;34202;52.536;6.042;2023-05-24T07:14:51;16.60;;;3.80;;
48403;SDS011;34202;52.536;6.042;2023-05-24T07:19:52;12.40;;;3.50;;
48403;SDS011;34202;52.536;6.042;2023-05-24T07:24:52;17.60;;;5.30;;
48403;SDS011;34202;52.536;6.042;2023-05-24T07:29:53;13.80;;;2.30;;
48403;SDS011;34202;52.536;6.042;2023-05-24T07:34:53;15.20;;;3.30;;
48403;SDS011;34202;52.536;6.042;2023-05-24T07:39:54;12.10;;;3.10;;
48403;SDS011;34202;52.536;6.042;2023-05-24T07:44:54;13.30;;;2.90;;
48403;SDS011;34202;52.536;6.042;2023-05-24T07:49:55;12.90;;;3.10;;
48403;SDS011;34202;52.536;6.042;2023-05-24T07:54:56;11.40;;;2.40;;
48403;SDS011;34202;52.536;6.042;2023-05-24T07:59:56;12.70;;;3.20;;
48403;SDS011;34202;52.536;6.042;2023-05-24T08:04:56;21.90;;;4.60;;
48403;SDS011;34202;52.536;6.042;2023-05-24T08:09:57;14.60;;;2.60;;
48403;SDS011;34202;52.536;6.042;2023-05-24T08:14:58;10.80;;;2.80;;
48403;SDS011;34202;52.536;6.042;2023-05-24T08:19:58;12.80;;;3.20;;
48403;SDS011;34202;52.536;6.042;2023-05-24T08:24:58;12.30;;;2.90;;
48403;SDS011;34202;52.536;6.042;2023-05-24T08:29:59;16.40;;;3.00;;
48403;SDS011;34202;52.536;6.042;2023-05-24T08:34:59;9.70;;;2.90;;
48403;SDS011;34202;52.536;6.042;2023-05-24T08:40:00;13.50;;;3.30;;
48403;SDS011;34202;52.536;6.042;2023-05-24T08:45:07;13.30;;;3.90;;
48403;SDS011;34202;52.536;6.042;2023-05-24T08:50:10;15.10;;;4.00;;
48403;SDS011;34202;52.536;6.042;2023-05-24T08:55:10;18.60;;;3.30;;
48403;SDS011;34202;52.536;6.042;2023-05-24T09:00:11;12.80;;;3.00;;
48403;SDS011;34202;52.536;6.042;2023-05-24T09:05:13;17.00;;;3.50;;
48403;SDS011;34202;52.536;6.042;2023-05-24T09:10:15;14.40;;;3.00;;
48403;SDS011;34202;52.536;6.042;2023-05-24T09:15:19;10.20;;;3.10;;
48403;SDS011;34202;52.536;6.042;2023-05-24T09:20:20;10.00;;;2.50;;
48403;SDS011;34202;52.536;6.042;2023-05-24T09:25:20;12.50;;;3.10;;
48403;SDS011;34202;52.536;6.042;2023-05-24T09:30:21;12.10;;;2.80;;
48403;SDS011;34202;52.536;6.042;2023-05-24T09:35:22;8.10;;;3.10;;
48403;SDS011;34202;52.536;6.042;2023-05-24T09:40:23;10.60;;;2.60;;
48403;SDS011;34202;52.536;6.042;2023-05-24T09:45:23;10.30;;;4.00;;
48403;SDS011;34202;52.536;6.042;2023-05-24T09:50:24;15.00;;;3.90;;
48403;SDS011;34202;52.536;6.042;2023-05-24T09:55:26;14.20;;;2.60;;
48403;SDS011;34202;52.536;6.042;2023-05-24T10:00:27;12.10;;;2.70;;
48403;SDS011;34202;52.536;6.042;2023-05-24T10:05:27;11.00;;;2.50;;
48403;SDS011;34202;52.536;6.042;2023-05-24T10:10:29;9.00;;;2.30;;
48403;SDS011;34202;52.536;6.042;2023-05-24T10:15:31;12.00;;;3.10;;
48403;SDS011;34202;52.536;6.042;2023-05-24T10:20:32;11.80;;;3.00;;
48403;SDS011;34202;52.536;6.042;2023-05-24T10:25:33;12.40;;;3.20;;
48403;SDS011;34202;52.536;6.042;2023-05-24T10:30:52;10.00;;;3.30;;
48403;SDS011;34202;52.536;6.042;2023-05-24T10:36:01;8.90;;;2.70;;
48403;SDS011;34202;52.536;6.042;2023-05-24T10:46:13;9.00;;;2.30;;
48403;SDS011;34202;52.536;6.042;2023-05-24T10:51:31;5.20;;;2.50;;
48403;SDS011;34202;52.536;6.042;2023-05-24T10:56:36;17.70;;;3.50;;
48403;SDS011;34202;52.536;6.042;2023-05-24T11:01:39;8.30;;;3.50;;
48403;SDS011;34202;52.536;6.042;2023-05-24T11:11:53;9.60;;;3.20;;
48403;SDS011;34202;52.536;6.042;2023-05-24T11:16:55;9.60;;;2.90;;
48403;SDS011;34202;52.536;6.042;2023-05-24T11:21:57;11.20;;;2.80;;
48403;SDS011;34202;52.536;6.042;2023-05-24T11:26:59;11.20;;;3.70;;
48403;SDS011;34202;52.536;6.042;2023-05-24T11:32:01;12.50;;;3.80;;
48403;SDS011;34202;52.536;6.042;2023-05-24T11:37:04;11.30;;;2.90;;
48403;SDS011;34202;52.536;6.042;2023-05-24T11:42:06;7.00;;;2.70;;
48403;SDS011;34202;52.536;6.042;2023-05-24T11:47:08;15.30;;;3.90;;
48403;SDS011;34202;52.536;6.042;2023-05-24T11:52:08;10.40;;;2.60;;
48403;SDS011;34202;52.536;6.042;2023-05-24T11:57:11;8.80;;;3.20;;
48403;SDS011;34202;52.536;6.042;2023-05-24T12:02:12;9.80;;;2.60;;
48403;SDS011;34202;52.536;6.042;2023-05-24T12:07:13;7.50;;;2.60;;
48403;SDS011;34202;52.536;6.042;2023-05-24T12:12:15;6.50;;;2.60;;
48403;SDS011;34202;52.536;6.042;2023-05-24T12:17:16;6.90;;;2.40;;
48403;SDS011;34202;52.536;6.042;2023-05-24T12:22:16;8.70;;;3.20;;
48403;SDS011;34202;52.536;6.042;2023-05-24T12:27:17;10.40;;;2.90;;
48403;SDS011;34202;52.536;6.042;2023-05-24T12:32:17;6.40;;;2.70;;
48403;SDS011;34202;52.536;6.042;2023-05-24T12:37:18;9.00;;;2.50;;
48403;SDS011;34202;52.536;6.042;2023-05-24T12:42:19;7.80;;;2.60;;
48403;SDS011;34202;52.536;6.042;2023-05-24T12:47:22;12.60;;;3.60;;
48403;SDS011;34202;52.536;6.042;2023-05-24T12:52:23;9.70;;;3.30;;
48403;SDS011;34202;52.536;6.042;2023-05-24T13:01:09;6.60;;;2.50;;
48403;SDS011;34202;52.536;6.042;2023-05-24T13:06:10;12.40;;;3.20;;
48403;SDS011;34202;52.536;6.042;2023-05-24T13:11:10;9.80;;;3.80;;
48403;SDS011;34202;52.536;6.042;2023-05-24T13:16:11;6.50;;;2.20;;
48403;SDS011;34202;52.536;6.042;2023-05-24T13:21:12;4.80;;;2.00;;
48403;SDS011;34202;52.536;6.042;2023-05-24T13:26:12;8.00;;;2.30;;
48403;SDS011;34202;52.536;6.042;2023-05-24T13:31:13;10.50;;;2.20;;
48403;SDS011;34202;52.536;6.042;2023-05-24T13:36:14;6.60;;;2.40;;
48403;SDS011;34202;52.536;6.042;2023-05-24T13:41:14;9.00;;;2.10;;
48403;SDS011;34202;52.536;6.042;2023-05-24T13:46:15;10.70;;;2.40;;
48403;SDS011;34202;52.536;6.042;2023-05-24T13:51:15;7.70;;;2.00;;
48403;SDS011;34202;52.536;6.042;2023-05-24T13:56:18;7.60;;;2.50;;
48403;SDS011;34202;52.536;6.042;2023-05-24T14:01:19;6.20;;;2.60;;
48403;SDS011;34202;52.536;6.042;2023-05-24T14:06:19;8.50;;;2.20;;
48403;SDS011;34202;52.536;6.042;2023-05-24T14:11:21;9.30;;;2.60;;
48403;SDS011;34202;52.536;6.042;2023-05-24T14:16:22;6.70;;;2.20;;
48403;SDS011;34202;52.536;6.042;2023-05-24T14:21:22;7.10;;;2.60;;
48403;SDS011;34202;52.536;6.042;2023-05-24T14:26:25;4.90;;;2.10;;
48403;SDS011;34202;52.536;6.042;2023-05-24T14:31:26;9.80;;;2.40;;
48403;SDS011;34202;52.536;6.042;2023-05-24T14:36:27;5.10;;;2.60;;
48403;SDS011;34202;52.536;6.042;2023-05-24T14:41:27;7.90;;;2.60;;
48403;SDS011;34202;52.536;6.042;2023-05-24T14:46:29;4.50;;;2.10;;
48403;SDS011;34202;52.536;6.042;2023-05-24T14:51:30;6.30;;;2.40;;
48403;SDS011;34202;52.536;6.042;2023-05-24T14:56:30;8.90;;;3.00;;
48403;SDS011;34202;52.536;6.042;2023-05-24T15:01:32;7.00;;;2.20;;
48403;SDS011;34202;52.536;6.042;2023-05-24T15:06:33;9.90;;;2.20;;
48403;SDS011;34202;52.536;6.042;2023-05-24T15:11:36;9.30;;;2.30;;
48403;SDS011;34202;52.536;6.042;2023-05-24T15:16:37;7.10;;;2.40;;
48403;SDS011;34202;52.536;6.042;2023-05-24T15:21:37;7.60;;;2.30;;
48403;SDS011;34202;52.536;6.042;2023-05-24T15:26:39;5.20;;;2.00;;
48403;SDS011;34202;52.536;6.042;2023-05-24T15:31:40;8.40;;;2.80;;
48403;SDS011;34202;52.536;6.042;2023-05-24T15:36:40;6.00;;;2.10;;
48403;SDS011;34202;52.536;6.042;2023-05-24T15:41:41;9.30;;;3.30;;
48403;SDS011;34202;52.536;6.042;2023-05-24T15:46:43;5.90;;;2.60;;
48403;SDS011;34202;52.536;6.042;2023-05-24T15:51:44;7.20;;;2.50;;
48403;SDS011;34202;52.536;6.042;2023-05-24T15:56:45;9.50;;;2.80;;
48403;SDS011;34202;52.536;6.042;2023-05-24T16:01:45;5.00;;;2.30;;
48403;SDS011;34202;52.536;6.042;2023-05-24T16:06:46;6.30;;;2.80;;
48403;SDS011;34202;52.536;6.042;2023-05-24T16:11:47;6.50;;;2.10;;
48403;SDS011;34202;52.536;6.042;2023-05-24T16:16:49;5.60;;;2.20;;
48403;SDS011;34202;52.536;6.042;2023-05-24T16:21:49;6.40;;;2.00;;
48403;SDS011;34202;52.536;6.042;2023-05-24T16:26:50;8.20;;;2.80;;
48403;SDS011;34202;52.536;6.042;2023-05-24T16:31:50;4.40;;;1.50;;
48403;SDS011;34202;52.536;6.042;2023-05-24T16:36:52;8.20;;;2.50;;
48403;SDS011;34202;52.536;6.042;2023-05-24T16:41:53;5.60;;;2.30;;
48403;SDS011;34202;52.536;6.042;2023-05-24T16:46:53;7.50;;;1.90;;
48403;SDS011;34202;52.536;6.042;2023-05-24T16:51:54;5.60;;;2.20;;
48403;SDS011;34202;52.536;6.042;2023-05-24T16:56:54;5.50;;;2.20;;
48403;SDS011;34202;52.536;6.042;2023-05-24T17:01:55;10.50;;;2.30;;
48403;SDS011;34202;52.536;6.042;2023-05-24T17:06:57;6.40;;;2.10;;
48403;SDS011;34202;52.536;6.042;2023-05-24T17:11:57;7.30;;;1.70;;
48403;SDS011;34202;52.536;6.042;2023-05-24T17:16:58;5.70;;;2.00;;
48403;SDS011;34202;52.536;6.042;2023-05-24T17:21:58;7.70;;;3.00;;
48403;SDS011;34202;52.536;6.042;2023-05-24T17:26:59;9.40;;;2.00;;
48403;SDS011;34202;52.536;6.042;2023-05-24T17:32:02;8.30;;;2.00;;
48403;SDS011;34202;52.536;6.042;2023-05-24T17:37:04;5.40;;;2.40;;
48403;SDS011;34202;52.536;6.042;2023-05-24T17:42:05;7.90;;;2.50;;
48403;SDS011;34202;52.536;6.042;2023-05-24T17:47:06;6.30;;;2.10;;
48403;SDS011;34202;52.536;6.042;2023-05-24T17:52:07;9.00;;;2.20;;
48403;SDS011;34202;52.536;6.042;2023-05-24T17:57:08;7.00;;;3.00;;
48403;SDS011;34202;52.536;6.042;2023-05-24T18:02:09;5.70;;;2.30;;
48403;SDS011;34202;52.536;6.042;2023-05-24T18:07:11;7.50;;;2.00;;
48403;SDS011;34202;52.536;6.042;2023-05-24T18:12:13;8.00;;;2.30;;
48403;SDS011;34202;52.536;6.042;2023-05-24T18:17:15;7.90;;;2.10;;
48403;SDS011;34202;52.536;6.042;2023-05-24T18:22:16;7.20;;;2.30;;
48403;SDS011;34202;52.536;6.042;2023-05-24T18:27:16;10.30;;;2.70;;
48403;SDS011;34202;52.536;6.042;2023-05-24T18:32:18;7.80;;;2.60;;
48403;SDS011;34202;52.536;6.042;2023-05-24T18:37:19;10.60;;;2.40;;
48403;SDS011;34202;52.536;6.042;2023-05-24T18:42:22;10.50;;;2.50;;
48403;SDS011;34202;52.536;6.042;2023-05-24T18:47:24;6.40;;;2.60;;
48403;SDS011;34202;52.536;6.042;2023-05-24T18:52:30;8.90;;;2.20;;
48403;SDS011;34202;52.536;6.042;2023-05-24T18:57:31;4.80;;;2.10;;
48403;SDS011;34202;52.536;6.042;2023-05-24T19:02:33;7.40;;;1.90;;
48403;SDS011;34202;52.536;6.042;2023-05-24T19:07:37;4.70;;;2.30;;
48403;SDS011;34202;52.536;6.042;2023-05-24T19:12:38;5.70;;;1.90;;
48403;SDS011;34202;52.536;6.042;2023-05-24T19:17:40;8.20;;;2.00;;
48403;SDS011;34202;52.536;6.042;2023-05-24T19:22:42;5.00;;;2.30;;
48403;SDS011;34202;52.536;6.042;2023-05-24T19:27:44;5.20;;;2.20;;
48403;SDS011;34202;52.536;6.042;2023-05-24T19:32:45;6.00;;;2.10;;
48403;SDS011;34202;52.536;6.042;2023-05-24T19:37:47;6.90;;;2.50;;
48403;SDS011;34202;52.536;6.042;2023-05-24T19:42:47;13.00;;;3.50;;
48403;SDS011;34202;52.536;6.042;2023-05-24T19:47:48;8.50;;;2.80;;
48403;SDS011;34202;52.536;6.042;2023-05-24T19:52:49;6.90;;;2.10;;
48403;SDS011;34202;52.536;6.042;2023-05-24T19:57:49;12.10;;;2.80;;
48403;SDS011;34202;52.536;6.042;2023-05-24T20:02:50;11.30;;;2.80;;
48403;SDS011;34202;52.536;6.042;2023-05-24T20:07:52;5.40;;;2.40;;
48403;SDS011;34202;52.536;6.042;2023-05-24T20:12:57;8.80;;;2.60;;
48403;SDS011;34202;52.536;6.042;2023-05-24T20:17:57;9.00;;;3.80;;
48403;SDS011;34202;52.536;6.042;2023-05-24T20:22:59;8.20;;;2.90;;
48403;SDS011;34202;52.536;6.042;2023-05-24T20:28:01;7.50;;;2.60;;
48403;SDS011;34202;52.536;6.042;2023-05-24T20:33:02;6.30;;;2.20;;
48403;SDS011;34202;52.536;6.042;2023-05-24T20:38:03;8.60;;;3.40;;
48403;SDS011;34202;52.536;6.042;2023-05-24T20:43:03;11.00;;;3.50;;
48403;SDS011;34202;52.536;6.042;2023-05-24T20:48:04;9.90;;;3.80;;
48403;SDS011;34202;52.536;6.042;2023-05-24T20:53:05;11.30;;;3.10;;
48403;SDS011;34202;52.536;6.042;2023-05-24T20:58:06;4.70;;;2.40;;
48403;SDS011;34202;52.536;6.042;2023-05-24T21:03:06;5.60;;;2.70;;
48403;SDS011;34202;52.536;6.042;2023-05-24T21:08:07;5.90;;;2.50;;
48403;SDS011;34202;52.536;6.042;2023-05-24T21:13:10;5.80;;;2.40;;
48403;SDS011;34202;52.536;6.042;2023-05-24T21:18:10;6.20;;;3.10;;
48403;SDS011;34202;52.536;6.042;2023-05-24T21:23:11;7.00;;;2.60;;
48403;SDS011;34202;52.536;6.042;2023-05-24T21:28:11;7.50;;;3.40;;
48403;SDS011;34202;52.536;6.042;2023-05-24T21:33:13;3.90;;;2.30;;
48403;SDS011;34202;52.536;6.042;2023-05-24T21:38:13;8.60;;;3.10;;
48403;SDS011;34202;52.536;6.042;2023-05-24T21:43:14;4.50;;;2.40;;
48403;SDS011;34202;52.536;6.042;2023-05-24T21:48:15;6.70;;;3.30;;
48403;SDS011;34202;52.536;6.042;2023-05-24T21:53:15;10.90;;;3.00;;
48403;SDS011;34202;52.536;6.042;2023-05-24T21:58:15;10.60;;;2.90;;
48403;SDS011;34202;52.536;6.042;2023-05-24T22:03:16;5.00;;;3.20;;
48403;SDS011;34202;52.536;6.042;2023-05-24T22:08:17;6.20;;;3.20;;
48403;SDS011;34202;52.536;6.042;2023-05-24T22:13:17;5.30;;;2.70;;
48403;SDS011;34202;52.536;6.042;2023-05-24T22:18:18;6.20;;;3.80;;
48403;SDS011;34202;52.536;6.042;2023-05-24T22:23:20;8.30;;;3.50;;
48403;SDS011;34202;52.536;6.042;2023-05-24T22:28:21;10.00;;;3.90;;
48403;SDS011;34202;52.536;6.042;2023-05-24T22:33:23;8.80;;;3.60;;
48403;SDS011;34202;52.536;6.042;2023-05-24T22:38:24;8.00;;;3.30;;
48403;SDS011;34202;52.536;6.042;2023-05-24T22:43:24;6.10;;;3.70;;
48403;SDS011;34202;52.536;6.042;2023-05-24T22:48:25;9.00;;;3.20;;
48403;SDS011;34202;52.536;6.042;2023-05-24T22:53:25;6.20;;;3.00;;
48403;SDS011;34202;52.536;6.042;2023-05-24T22:58:26;7.10;;;3.50;;
48403;SDS011;34202;52.536;6.042;2023-05-24T23:03:26;7.70;;;3.90;;
48403;SDS011;34202;52.536;6.042;2023-05-24T23:08:26;6.40;;;3.20;;
48403;SDS011;34202;52.536;6.042;2023-05-24T23:13:27;9.90;;;3.80;;
48403;SDS011;34202;52.536;6.042;2023-05-24T23:18:32;11.50;;;3.90;;
48403;SDS011;34202;52.536;6.042;2023-05-24T23:23:32;7.80;;;3.70;;
48403;SDS011;34202;52.536;6.042;2023-05-24T23:28:33;7.50;;;3.90;;
48403;SDS011;34202;52.536;6.042;2023-05-24T23:33:33;8.90;;;3.50;;
48403;SDS011;34202;52.536;6.042;2023-05-24T23:38:34;10.30;;;3.20;;
48403;SDS011;34202;52.536;6.042;2023-05-24T23:43:35;9.60;;;4.20;;
48403;SDS011;34202;52.536;6.042;2023-05-24T23:48:35;11.00;;;3.50;;
48403;SDS011;34202;52.536;6.042;2023-05-24T23:53:36;13.20;;;5.20;;
48403;SDS011;34202;52.536;6.042;2023-05-24T23:58:36;8.60;;;3.60;;
